Time;durP1;ratioP1;P1;durP2;ratioP2;P2;SDS_P1;SDS_P2;PMS_P1;PMS_P2;Temp;Humidity;BMP_temperature;BMP_pressure;BME280_temperature;BME280_humidity;BME280_pressure;Samples;Min_cycle;Max_cycle;Signal;HPM_P1;HPM_P2
2024/03/24 00:02:13;;;;;;;1.88;1.10;;;;;;;;;;10255529;28;20263;-75
2024/03/24 00:07:15;;;;;;;0.93;0.80;;;;;;;;;;10236119;28;20551;-76
2024/03/24 00:12:19;;;;;;;1.17;0.70;;;;;;;;;;10239970;28;20316;-75
2024/03/24 00:17:22;;;;;;;1.42;0.77;;;;;;;;;;10256904;28;20049;-75
2024/03/24 00:22:26;;;;;;;1.67;0.70;;;;;;;;;;10250613;28;20043;-74
2024/03/24 00:27:30;;;;;;;0.65;0.50;;;;;;;;;;10242106;28;20122;-74
2024/03/24 00:32:32;;;;;;;0.60;0.60;;;;;;;;;;10236989;28;20059;-74
2024/03/24 00:37:35;;;;;;;4.38;0.60;;;;;;;;;;10230789;28;20130;-75
2024/03/24 00:42:38;;;;;;;1.30;0.70;;;;;;;;;;10208226;28;20047;-74
2024/03/24 00:47:41;;;;;;;0.75;0.75;;;;;;;;;;10236754;28;20157;-75
2024/03/24 00:52:44;;;;;;;1.17;0.88;;;;;;;;;;10266057;28;20050;-74
2024/03/24 00:57:48;;;;;;;1.88;1.00;;;;;;;;;;10253660;28;20053;-74
2024/03/24 01:02:51;;;;;;;1.50;0.85;;;;;;;;;;10242931;28;20433;-75
2024/03/24 01:07:54;;;;;;;1.67;1.23;;;;;;;;;;10230735;28;20069;-75
2024/03/24 01:12:57;;;;;;;1.27;0.90;;;;;;;;;;10245229;28;20092;-75
2024/03/24 01:18:00;;;;;;;1.65;1.05;;;;;;;;;;10259269;28;20100;-74
2024/03/24 01:23:02;;;;;;;0.88;0.80;;;;;;;;;;10271946;28;20112;-75
2024/03/24 01:28:07;;;;;;;0.85;0.60;;;;;;;;;;10250486;28;20121;-74
2024/03/24 01:33:09;;;;;;;1.08;0.90;;;;;;;;;;10256448;28;20659;-75
2024/03/24 01:38:11;;;;;;;1.88;0.80;;;;;;;;;;10231245;28;20386;-75
2024/03/24 01:43:15;;;;;;;1.48;0.93;;;;;;;;;;10257300;28;20113;-74
2024/03/24 01:48:18;;;;;;;1.90;1.10;;;;;;;;;;10262477;28;20104;-74
2024/03/24 01:53:21;;;;;;;2.35;1.33;;;;;;;;;;10238035;28;20046;-74
2024/03/24 01:58:25;;;;;;;3.15;1.17;;;;;;;;;;10262933;28;20073;-74
2024/03/24 02:03:29;;;;;;;1.98;1.05;;;;;;;;;;10243227;28;20551;-74
2024/03/24 02:08:32;;;;;;;2.17;1.20;;;;;;;;;;10246123;28;20130;-74
2024/03/24 02:13:36;;;;;;;3.17;1.83;;;;;;;;;;10219250;28;20139;-74
2024/03/24 02:18:38;;;;;;;2.00;1.00;;;;;;;;;;10291787;28;20047;-74
2024/03/24 02:23:42;;;;;;;1.67;1.15;;;;;;;;;;10282955;28;20042;-74
2024/03/24 02:28:45;;;;;;;1.33;0.93;;;;;;;;;;10256402;28;20132;-74
2024/03/24 02:33:47;;;;;;;2.50;0.90;;;;;;;;;;10257854;28;20053;-74
2024/03/24 02:38:51;;;;;;;2.42;1.25;;;;;;;;;;10243454;28;20043;-74
2024/03/24 02:43:53;;;;;;;5.38;1.85;;;;;;;;;;10242312;28;20247;-74
2024/03/24 02:48:56;;;;;;;1.15;0.88;;;;;;;;;;10257502;28;20043;-74
2024/03/24 02:54:00;;;;;;;3.05;0.90;;;;;;;;;;10275380;28;20053;-74
2024/03/24 02:59:02;;;;;;;1.88;1.00;;;;;;;;;;10258078;28;20071;-74
2024/03/24 03:04:05;;;;;;;1.20;0.93;;;;;;;;;;10271732;28;20422;-74
2024/03/24 03:09:08;;;;;;;1.50;1.00;;;;;;;;;;10238905;28;20043;-74
2024/03/24 03:14:11;;;;;;;0.77;0.77;;;;;;;;;;10236666;28;20047;-74
2024/03/24 03:19:13;;;;;;;1.40;0.90;;;;;;;;;;10245796;28;20039;-74
2024/03/24 03:24:18;;;;;;;1.77;0.93;;;;;;;;;;10238887;28;20501;-74
2024/03/24 03:29:20;;;;;;;1.40;0.93;;;;;;;;;;10258433;28;20043;-74
2024/03/24 03:34:22;;;;;;;1.05;0.70;;;;;;;;;;10264084;28;20046;-74
2024/03/24 03:39:26;;;;;;;3.95;0.98;;;;;;;;;;10255682;28;20413;-74
2024/03/24 03:44:29;;;;;;;1.98;1.17;;;;;;;;;;10239147;28;20037;-74
2024/03/24 03:49:31;;;;;;;2.00;1.27;;;;;;;;;;10273027;28;20048;-74
2024/03/24 03:54:36;;;;;;;1.20;0.77;;;;;;;;;;10294135;28;20234;-74
2024/03/24 03:59:39;;;;;;;1.67;0.90;;;;;;;;;;10283628;28;20041;-74
2024/03/24 04:04:41;;;;;;;2.63;1.30;;;;;;;;;;10223928;28;20053;-74
2024/03/24 04:09:45;;;;;;;2.83;1.02;;;;;;;;;;10246498;28;20092;-74
2024/03/24 04:14:48;;;;;;;1.42;1.33;;;;;;;;;;10232699;28;20047;-74
2024/03/24 04:19:50;;;;;;;1.65;1.30;;;;;;;;;;10231870;28;20043;-74
2024/03/24 04:24:55;;;;;;;1.05;0.90;;;;;;;;;;10253377;28;20143;-74
2024/03/24 04:29:57;;;;;;;1.05;0.80;;;;;;;;;;10247071;28;20229;-74
2024/03/24 04:34:59;;;;;;;1.00;0.90;;;;;;;;;;10261363;28;20046;-74
2024/03/24 04:40:05;;;;;;;1.00;0.90;;;;;;;;;;10230063;28;20399;-74
2024/03/24 04:45:09;;;;;;;1.48;1.00;;;;;;;;;;10245565;28;20039;-74
2024/03/24 04:50:11;;;;;;;1.42;1.10;;;;;;;;;;10264495;28;20046;-74
2024/03/24 04:55:15;;;;;;;1.40;0.80;;;;;;;;;;10261473;28;20027;-74
2024/03/24 05:00:19;;;;;;;3.30;1.00;;;;;;;;;;10296672;28;20047;-74
2024/03/24 05:05:22;;;;;;;1.00;0.90;;;;;;;;;;10239127;28;20043;-74
2024/03/24 05:10:27;;;;;;;2.35;0.80;;;;;;;;;;10238620;28;20038;-74
2024/03/24 05:15:31;;;;;;;5.97;1.40;;;;;;;;;;10256867;28;20101;-74
2024/03/24 05:20:36;;;;;;;2.85;1.58;;;;;;;;;;10281454;23;20089;-74
2024/03/24 05:25:41;;;;;;;4.97;1.70;;;;;;;;;;10302819;28;20053;-74
2024/03/24 05:30:44;;;;;;;2.83;1.50;;;;;;;;;;10300588;28;20121;-74
2024/03/24 05:35:47;;;;;;;1.95;1.50;;;;;;;;;;10318172;28;20130;-74
2024/03/24 05:40:57;;;;;;;3.55;1.42;;;;;;;;;;10306780;28;20054;-74
2024/03/24 05:46:00;;;;;;;4.13;1.83;;;;;;;;;;10299575;28;20053;-74
2024/03/24 05:51:04;;;;;;;3.10;1.73;;;;;;;;;;10301454;28;20039;-74
2024/03/24 05:56:08;;;;;;;3.80;1.80;;;;;;;;;;10302732;28;20135;-74
2024/03/24 06:01:11;;;;;;;5.57;1.70;;;;;;;;;;10308411;28;20762;-74
2024/03/24 06:06:13;;;;;;;2.38;1.60;;;;;;;;;;10308806;28;20149;-74
2024/03/24 06:11:17;;;;;;;3.97;1.63;;;;;;;;;;10290395;28;20047;-74
2024/03/24 06:16:19;;;;;;;3.28;1.80;;;;;;;;;;10305906;28;20091;-74
2024/03/24 06:21:22;;;;;;;4.35;1.83;;;;;;;;;;10298189;28;20137;-74
2024/03/24 06:26:26;;;;;;;3.92;1.70;;;;;;;;;;10307924;28;20107;-74
2024/03/24 06:31:28;;;;;;;4.97;2.15;;;;;;;;;;10307291;28;20122;-74
2024/03/24 06:36:31;;;;;;;3.13;1.58;;;;;;;;;;10306230;28;20042;-74
2024/03/24 06:41:38;;;;;;;5.15;2.28;;;;;;;;;;10293442;28;20043;-74
2024/03/24 06:46:42;;;;;;;3.47;1.92;;;;;;;;;;10300732;28;20076;-74
2024/03/24 06:51:45;;;;;;;3.42;1.58;;;;;;;;;;10308089;28;20045;-74
2024/03/24 06:56:48;;;;;;;4.10;1.80;;;;;;;;;;10308069;28;20045;-74
2024/03/24 07:01:51;;;;;;;4.00;1.63;;;;;;;;;;10298427;28;20183;-75
2024/03/24 07:06:53;;;;;;;2.03;1.50;;;;;;;;;;10314466;28;20088;-74
2024/03/24 07:11:57;;;;;;;3.83;2.08;;;;;;;;;;10294499;28;20043;-74
2024/03/24 07:16:59;;;;;;;5.88;2.10;;;;;;;;;;10306588;28;20209;-74
2024/03/24 07:22:02;;;;;;;3.83;2.35;;;;;;;;;;10306899;28;20709;-74
2024/03/24 07:27:06;;;;;;;4.25;2.20;;;;;;;;;;10299011;28;20042;-74
2024/03/24 07:32:08;;;;;;;5.72;2.40;;;;;;;;;;10300963;28;20042;-74
2024/03/24 07:37:11;;;;;;;5.10;2.00;;;;;;;;;;10297987;28;20048;-74
2024/03/24 07:42:14;;;;;;;5.43;2.20;;;;;;;;;;10300179;28;20126;-74
2024/03/24 07:47:18;;;;;;;5.50;1.77;;;;;;;;;;10305596;28;20066;-74
2024/03/24 07:52:21;;;;;;;5.13;2.33;;;;;;;;;;10325572;28;20039;-74
2024/03/24 07:57:25;;;;;;;3.83;2.25;;;;;;;;;;10315202;28;20129;-75
2024/03/24 08:02:28;;;;;;;4.68;2.03;;;;;;;;;;10326143;28;20042;-74
2024/03/24 08:07:30;;;;;;;6.28;2.25;;;;;;;;;;10308078;28;20043;-74
2024/03/24 08:12:34;;;;;;;4.97;2.00;;;;;;;;;;10298294;28;20309;-74
2024/03/24 08:17:37;;;;;;;4.88;2.78;;;;;;;;;;10294635;28;20034;-74
2024/03/24 08:22:40;;;;;;;4.15;2.10;;;;;;;;;;10304153;28;20047;-74
2024/03/24 08:27:44;;;;;;;6.07;2.13;;;;;;;;;;10298898;28;20050;-74
2024/03/24 08:32:47;;;;;;;3.33;1.90;;;;;;;;;;10293849;28;20099;-74
2024/03/24 08:37:49;;;;;;;3.50;1.83;;;;;;;;;;10287343;28;20047;-74
2024/03/24 08:42:53;;;;;;;2.17;1.65;;;;;;;;;;10301394;28;20069;-74
2024/03/24 08:47:56;;;;;;;5.07;2.33;;;;;;;;;;10296073;28;20570;-75
2024/03/24 08:52:58;;;;;;;3.53;1.77;;;;;;;;;;10298798;28;20129;-74
2024/03/24 08:58:02;;;;;;;2.85;1.90;;;;;;;;;;10280115;28;20537;-74
2024/03/24 09:03:05;;;;;;;3.20;1.90;;;;;;;;;;10310354;28;20174;-74
2024/03/24 09:08:07;;;;;;;4.47;2.28;;;;;;;;;;10305028;28;20136;-74
2024/03/24 09:13:11;;;;;;;4.15;1.63;;;;;;;;;;10308464;28;20636;-75
2024/03/24 09:18:14;;;;;;;4.15;1.88;;;;;;;;;;10301040;28;20070;-75
2024/03/24 09:23:16;;;;;;;3.85;2.05;;;;;;;;;;10298399;28;20050;-74
2024/03/24 09:28:20;;;;;;;3.08;1.80;;;;;;;;;;10294309;28;20130;-75
2024/03/24 09:33:23;;;;;;;4.55;2.30;;;;;;;;;;10307598;28;20035;-75
2024/03/24 09:38:26;;;;;;;3.47;2.13;;;;;;;;;;10305349;28;20185;-74
2024/03/24 09:43:31;;;;;;;5.60;2.30;;;;;;;;;;10309504;28;20132;-75
2024/03/24 09:48:34;;;;;;;4.80;2.22;;;;;;;;;;10308819;28;20298;-74
2024/03/24 09:53:40;;;;;;;3.40;1.80;;;;;;;;;;10306419;28;20107;-74
2024/03/24 09:58:46;;;;;;;5.28;3.50;;;;;;;;;;10382970;28;20122;-74
2024/03/24 10:03:48;;;;;;;3.93;2.07;;;;;;;;;;10290755;28;20129;-74
2024/03/24 10:08:51;;;;;;;4.32;1.90;;;;;;;;;;10316145;28;20047;-74
2024/03/24 10:13:55;;;;;;;8.25;4.00;;;;;;;;;;10308744;28;20045;-74
2024/03/24 10:18:58;;;;;;;6.97;3.20;;;;;;;;;;10317357;28;20167;-74
2024/03/24 10:24:01;;;;;;;5.38;3.00;;;;;;;;;;10297366;28;20318;-74
2024/03/24 10:29:05;;;;;;;4.45;2.50;;;;;;;;;;10305096;28;20138;-75
2024/03/24 10:34:07;;;;;;;4.05;2.20;;;;;;;;;;10306423;28;20135;-75
2024/03/24 10:39:10;;;;;;;4.72;1.90;;;;;;;;;;10309295;28;20091;-74
2024/03/24 10:44:14;;;;;;;4.50;2.15;;;;;;;;;;10387614;28;20166;-75
2024/03/24 10:49:21;;;;;;;4.25;1.77;;;;;;;;;;10384569;28;20201;-74
2024/03/24 10:54:24;;;;;;;5.25;2.05;;;;;;;;;;10297905;28;20051;-74
2024/03/24 10:59:29;;;;;;;4.43;2.03;;;;;;;;;;10289710;28;20043;-74
2024/03/24 11:04:33;;;;;;;3.17;1.60;;;;;;;;;;10303314;28;20042;-74
2024/03/24 11:09:36;;;;;;;5.47;2.60;;;;;;;;;;10301236;28;20798;-73
2024/03/24 11:14:40;;;;;;;2.85;1.67;;;;;;;;;;10301573;28;20078;-73
2024/03/24 11:19:49;;;;;;;3.65;2.05;;;;;;;;;;10317060;22;20411;-75
2024/03/24 11:24:55;;;;;;;3.10;1.77;;;;;;;;;;10266131;28;20094;-75
2024/03/24 11:29:59;;;;;;;2.25;1.63;;;;;;;;;;10247303;28;20507;-76
2024/03/24 11:35:03;;;;;;;2.95;1.40;;;;;;;;;;10310631;28;20138;-75
2024/03/24 11:40:11;;;;;;;4.50;1.60;;;;;;;;;;10240835;28;20126;-75
2024/03/24 11:45:35;;;;;;;3.03;1.30;;;;;;;;;;10228593;28;20536;-75
2024/03/24 11:50:38;;;;;;;3.95;1.58;;;;;;;;;;10236993;28;20043;-75
2024/03/24 11:55:40;;;;;;;5.25;2.10;;;;;;;;;;10230549;28;20051;-75
2024/03/24 12:00:44;;;;;;;5.03;2.03;;;;;;;;;;10234335;28;20054;-75
2024/03/24 12:05:47;;;;;;;6.35;3.28;;;;;;;;;;10226011;28;20047;-75
2024/03/24 12:10:52;;;;;;;8.68;3.13;;;;;;;;;;10232767;28;20042;-75
2024/03/24 12:15:56;;;;;;;5.25;2.95;;;;;;;;;;10234270;28;20065;-75
2024/03/24 12:21:02;;;;;;;4.22;1.98;;;;;;;;;;10234080;28;20105;-76
2024/03/24 12:26:04;;;;;;;4.93;2.17;;;;;;;;;;10224917;28;20051;-75
2024/03/24 12:31:10;;;;;;;4.95;1.90;;;;;;;;;;10233435;28;20093;-75
2024/03/24 12:36:13;;;;;;;2.53;1.10;;;;;;;;;;10216713;28;20071;-75
2024/03/24 12:41:21;;;;;;;2.25;1.02;;;;;;;;;;10228669;28;20496;-75
2024/03/24 12:46:29;;;;;;;1.13;0.85;;;;;;;;;;10240921;28;20039;-76
2024/03/24 12:51:33;;;;;;;4.05;1.35;;;;;;;;;;10208222;28;20528;-75
2024/03/24 12:56:35;;;;;;;1.42;1.15;;;;;;;;;;10218609;28;20039;-75
2024/03/24 13:01:43;;;;;;;1.17;0.82;;;;;;;;;;10224854;28;20088;-75
2024/03/24 13:06:48;;;;;;;1.90;1.27;;;;;;;;;;10233141;28;20043;-76
2024/03/24 13:11:51;;;;;;;4.33;1.60;;;;;;;;;;10228060;28;20058;-76
2024/03/24 13:17:01;;;;;;;2.97;1.38;;;;;;;;;;10232980;28;20569;-76
2024/03/24 13:22:05;;;;;;;5.43;1.52;;;;;;;;;;10234249;28;20062;-75
2024/03/24 13:27:14;;;;;;;6.32;2.47;;;;;;;;;;10214435;28;20053;-75
2024/03/24 13:32:18;;;;;;;3.15;1.30;;;;;;;;;;10234048;28;20557;-75
2024/03/24 13:37:27;;;;;;;4.63;1.73;;;;;;;;;;10217246;28;20128;-75
2024/03/24 13:42:40;;;;;;;2.97;1.45;;;;;;;;;;10238775;28;20047;-76
2024/03/24 13:47:45;;;;;;;4.30;1.50;;;;;;;;;;10216882;28;20492;-76
2024/03/24 13:52:49;;;;;;;1.77;1.20;;;;;;;;;;10219869;28;20107;-75
2024/03/24 13:57:51;;;;;;;2.78;1.35;;;;;;;;;;10221574;28;20038;-76
2024/03/24 14:02:59;;;;;;;1.95;1.30;;;;;;;;;;10212256;28;20039;-76
2024/03/24 14:08:02;;;;;;;3.35;1.10;;;;;;;;;;10206872;28;20051;-76
2024/03/24 14:13:08;;;;;;;7.07;1.58;;;;;;;;;;10220900;28;20540;-76
2024/03/24 14:18:26;;;;;;;3.03;1.30;;;;;;;;;;10217392;28;20043;-75
2024/03/24 14:23:50;;;;;;;3.70;1.70;;;;;;;;;;10305889;28;20043;-76
2024/03/24 14:28:53;;;;;;;2.42;1.40;;;;;;;;;;10221700;28;20046;-75
2024/03/24 14:33:56;;;;;;;3.47;0.90;;;;;;;;;;10223138;28;20042;-75
2024/03/24 14:39:11;;;;;;;0.55;0.50;;;;;;;;;;10217747;28;20050;-75
2024/03/24 14:44:29;;;;;;;3.30;0.98;;;;;;;;;;10222218;28;20607;-75
2024/03/24 14:49:33;;;;;;;2.50;1.10;;;;;;;;;;10209600;28;20035;-75
2024/03/24 14:54:35;;;;;;;2.15;1.10;;;;;;;;;;10219632;28;20039;-75
2024/03/24 14:59:38;;;;;;;2.63;1.30;;;;;;;;;;10237516;28;20046;-75
2024/03/24 15:04:43;;;;;;;4.85;1.30;;;;;;;;;;10245900;28;20082;-75
2024/03/24 15:09:59;;;;;;;2.35;1.00;;;;;;;;;;10232944;28;20054;-75
2024/03/24 15:15:07;;;;;;;3.22;1.67;;;;;;;;;;10226147;28;20134;-75
2024/03/24 15:20:12;;;;;;;2.70;1.42;;;;;;;;;;10252867;28;22002;-73
2024/03/24 15:25:14;;;;;;;2.75;1.45;;;;;;;;;;10217607;28;20464;-75
2024/03/24 15:36:44;;;;;;;2.35;1.40;;;;;;;;;;3056325;26;20065;-73
2024/03/24 15:42:42;;;;;;;;;;;;;;;;;;;;;
2024/03/24 16:07:17;;;;;;;3.83;2.13;;;;;;;;;;10173657;28;20051;-73
2024/03/24 16:13:20;;;;;;;6.07;2.10;;;;;;;;;;10244016;28;20058;-74
2024/03/24 16:19:23;;;;;;;;;;;;;;;;;;;;;
2024/03/24 16:24:41;;;;;;;2.97;1.67;;;;;;;;;;10281155;28;20112;-74
2024/03/24 16:30:00;;;;;;;5.25;1.70;;;;;;;;;;10257256;28;20047;-74
2024/03/24 16:35:26;;;;;;;;;;;;;;;;;;10252413;28;20500;-74
2024/03/24 16:41:06;;;;;;;2.05;1.50;;;;;;;;;;10258698;28;20056;-73
2024/03/24 16:46:10;;;;;;;7.25;2.13;;;;;;;;;;10284153;28;20495;-74
2024/03/24 16:51:12;;;;;;;4.22;1.95;;;;;;;;;;10259876;28;20066;-74
2024/03/24 16:56:16;;;;;;;5.20;2.55;;;;;;;;;;10260125;28;20054;-73
2024/03/24 17:01:23;;;;;;;4.47;2.35;;;;;;;;;;10257823;28;20424;-73
2024/03/24 17:06:25;;;;;;;4.72;2.03;;;;;;;;;;10259399;28;20057;-74
2024/03/24 17:11:41;;;;;;;4.07;2.10;;;;;;;;;;10245667;28;20043;-74
2024/03/24 17:16:44;;;;;;;5.07;2.15;;;;;;;;;;10264273;28;20066;-74
2024/03/24 17:21:57;;;;;;;6.03;2.05;;;;;;;;;;10259788;28;20066;-73
2024/03/24 17:27:00;;;;;;;4.10;1.98;;;;;;;;;;10256798;28;20818;-73
2024/03/24 17:32:03;;;;;;;4.40;1.92;;;;;;;;;;10250027;28;20057;-74
2024/03/24 17:37:05;;;;;;;4.13;2.35;;;;;;;;;;10251185;28;20191;-74
2024/03/24 17:42:09;;;;;;;5.20;2.50;;;;;;;;;;10260483;28;20078;-74
2024/03/24 17:47:11;;;;;;;4.40;2.05;;;;;;;;;;10257149;28;20492;-73
2024/03/24 17:52:28;;;;;;;;;;;;;;;;;;;;;
2024/03/24 17:57:55;;;;;;;3.70;2.00;;;;;;;;;;10338121;28;20050;-74
2024/03/24 18:13:45;;;;;;;3.58;1.60;;;;;;;;;;10310385;28;20058;-73
2024/03/24 18:18:48;;;;;;;7.75;2.70;;;;;;;;;;10333419;28;20050;-73
2024/03/24 18:23:57;;;;;;;3.95;2.22;;;;;;;;;;10331563;28;20073;-73
2024/03/24 18:29:02;;;;;;;3.53;2.00;;;;;;;;;;10284260;28;20043;-73
2024/03/24 18:34:05;;;;;;;4.45;2.35;;;;;;;;;;10320984;28;20042;-74
2024/03/24 18:39:07;;;;;;;3.35;1.60;;;;;;;;;;10301143;28;20043;-74
2024/03/24 18:44:13;;;;;;;4.20;1.98;;;;;;;;;;10289180;28;21887;-73
2024/03/24 18:49:15;;;;;;;3.47;2.08;;;;;;;;;;10313447;28;20035;-73
2024/03/24 18:54:18;;;;;;;4.63;2.03;;;;;;;;;;10322473;28;20054;-73
2024/03/24 18:59:22;;;;;;;5.55;2.00;;;;;;;;;;10314700;28;20042;-73
2024/03/24 19:04:25;;;;;;;3.17;1.83;;;;;;;;;;10301193;28;20052;-73
2024/03/24 19:09:28;;;;;;;6.55;2.30;;;;;;;;;;10287561;28;20104;-73
2024/03/24 19:14:32;;;;;;;3.63;1.92;;;;;;;;;;10311581;28;20048;-73
2024/03/24 19:19:34;;;;;;;5.40;2.03;;;;;;;;;;10299714;28;20383;-73
2024/03/24 19:24:36;;;;;;;3.97;1.73;;;;;;;;;;10312238;28;21018;-73
2024/03/24 19:29:40;;;;;;;5.22;1.70;;;;;;;;;;10312489;28;20045;-73
2024/03/24 19:34:43;;;;;;;6.35;2.22;;;;;;;;;;10328945;28;20058;-73
2024/03/24 19:39:48;;;;;;;4.82;2.10;;;;;;;;;;10313348;28;20100;-73
2024/03/24 19:44:52;;;;;;;5.32;2.10;;;;;;;;;;10297660;28;20052;-73
2024/03/24 19:49:54;;;;;;;8.43;2.20;;;;;;;;;;10303150;28;20054;-74
2024/03/24 19:54:57;;;;;;;6.22;2.30;;;;;;;;;;10300450;28;20038;-73
2024/03/24 20:00:00;;;;;;;6.43;2.22;;;;;;;;;;10300263;28;20050;-73
2024/03/24 20:05:03;;;;;;;4.15;1.98;;;;;;;;;;10311956;28;20046;-73
2024/03/24 20:10:06;;;;;;;3.50;1.88;;;;;;;;;;10317381;28;20243;-73
2024/03/24 20:15:10;;;;;;;4.53;1.88;;;;;;;;;;10294751;28;20050;-73
2024/03/24 20:20:13;;;;;;;5.32;1.58;;;;;;;;;;10286296;28;20062;-74
2024/03/24 20:25:15;;;;;;;2.90;1.50;;;;;;;;;;10305141;28;20503;-74
2024/03/24 20:30:19;;;;;;;5.20;2.13;;;;;;;;;;10317529;28;20100;-74
2024/03/24 20:35:21;;;;;;;3.15;1.88;;;;;;;;;;10307753;28;20053;-73
2024/03/24 20:40:24;;;;;;;5.03;1.77;;;;;;;;;;10308804;28;20051;-74
2024/03/24 20:45:28;;;;;;;4.18;2.08;;;;;;;;;;10301308;28;20120;-74
2024/03/24 20:50:30;;;;;;;4.72;1.70;;;;;;;;;;10312918;28;20036;-73
2024/03/24 20:55:32;;;;;;;4.78;1.77;;;;;;;;;;10317605;28;20078;-73
2024/03/24 21:00:36;;;;;;;5.93;1.40;;;;;;;;;;10296866;28;20145;-73
2024/03/24 21:05:39;;;;;;;4.57;1.60;;;;;;;;;;10296634;28;20069;-73
2024/03/24 21:10:42;;;;;;;2.42;1.40;;;;;;;;;;10299754;28;20483;-73
2024/03/24 21:15:46;;;;;;;2.78;1.38;;;;;;;;;;10297685;28;20047;-74
2024/03/24 21:20:49;;;;;;;3.67;1.65;;;;;;;;;;10293692;28;20049;-74
2024/03/24 21:25:51;;;;;;;3.55;1.10;;;;;;;;;;10334854;28;20472;-74
2024/03/24 21:30:55;;;;;;;5.40;1.60;;;;;;;;;;10333343;28;20050;-74
2024/03/24 21:35:57;;;;;;;2.67;1.60;;;;;;;;;;10331288;28;20057;-75
2024/03/24 21:46:21;;;;;;;3.60;1.40;;;;;;;;;;10315183;28;20043;-74
2024/03/24 21:51:23;;;;;;;5.82;2.13;;;;;;;;;;10326594;28;20511;-73
2024/03/24 21:56:26;;;;;;;4.80;1.50;;;;;;;;;;10309177;28;20095;-73
2024/03/24 22:01:30;;;;;;;4.15;1.98;;;;;;;;;;10334187;28;20064;-74
2024/03/24 22:06:32;;;;;;;3.97;1.63;;;;;;;;;;10314354;28;20288;-74
2024/03/24 22:11:34;;;;;;;4.07;1.55;;;;;;;;;;10305684;28;20055;-74
2024/03/24 22:16:38;;;;;;;4.15;1.63;;;;;;;;;;10335628;28;20050;-74
2024/03/24 22:21:41;;;;;;;9.48;2.45;;;;;;;;;;10304065;28;20054;-74
2024/03/24 22:26:43;;;;;;;5.10;2.15;;;;;;;;;;10324022;28;20146;-74
2024/03/24 22:31:47;;;;;;;5.53;1.90;;;;;;;;;;10329223;28;20058;-74
2024/03/24 22:36:49;;;;;;;7.95;1.70;;;;;;;;;;10311971;28;20056;-74
2024/03/24 22:41:51;;;;;;;4.32;1.52;;;;;;;;;;10335649;28;20527;-74
2024/03/24 22:46:55;;;;;;;2.83;1.50;;;;;;;;;;10315339;28;20038;-74
2024/03/24 22:51:58;;;;;;;4.45;1.67;;;;;;;;;;10331171;28;20050;-74
2024/03/24 22:57:00;;;;;;;4.32;1.80;;;;;;;;;;10317439;28;20058;-74
2024/03/24 23:02:04;;;;;;;6.18;1.63;;;;;;;;;;10304506;28;20057;-74
2024/03/24 23:07:06;;;;;;;5.20;2.20;;;;;;;;;;10320175;28;20085;-74
2024/03/24 23:12:09;;;;;;;6.35;1.55;;;;;;;;;;10318779;28;20042;-74
2024/03/24 23:17:13;;;;;;;4.90;1.65;;;;;;;;;;10321718;28;20054;-74
2024/03/24 23:22:15;;;;;;;5.18;1.98;;;;;;;;;;10346838;23;20058;-74
2024/03/24 23:27:18;;;;;;;3.78;1.50;;;;;;;;;;10268628;28;20447;-74
2024/03/24 23:32:22;;;;;;;4.25;1.88;;;;;;;;;;10235697;28;20051;-74
2024/03/24 23:37:24;;;;;;;3.90;1.90;;;;;;;;;;10251127;28;20517;-73
2024/03/24 23:42:26;;;;;;;3.80;1.40;;;;;;;;;;10240769;28;20051;-74
2024/03/24 23:47:30;;;;;;;6.53;1.90;;;;;;;;;;10218478;28;20051;-74
2024/03/24 23:52:32;;;;;;;5.20;1.67;;;;;;;;;;10236209;28;20125;-74
2024/03/24 23:57:34;;;;;;;2.67;1.38;;;;;;;;;;10238411;28;20656;-74
